sensor_id;sensor_type;location;lat;lon;timestamp;pressure;altitude;pressure_sealevel;temperature;humidity
59240;BME280;45010;53.640;10.578;2023-04-15T00:01:31;100262.69;;;25.54;31.71
59240;BME280;45010;53.640;10.578;2023-04-15T00:04:33;100257.56;;;25.52;31.45
59240;BME280;45010;53.640;10.578;2023-04-15T00:07:34;100236.22;;;25.30;31.54
59240;BME280;45010;53.640;10.578;2023-04-15T00:10:35;100261.00;;;25.48;31.60
59240;BME280;45010;53.640;10.578;2023-04-15T00:13:35;100266.34;;;25.48;31.51
59240;BME280;45010;53.640;10.578;2023-04-15T00:16:35;100266.03;;;25.44;31.77
59240;BME280;45010;53.640;10.578;2023-04-15T00:19:36;100273.50;;;25.42;31.58
59240;BME280;45010;53.640;10.578;2023-04-15T00:22:36;100278.00;;;25.42;31.57
59240;BME280;45010;53.640;10.578;2023-04-15T00:25:37;100283.84;;;25.38;31.60
59240;BME280;45010;53.640;10.578;2023-04-15T00:28:37;100272.59;;;25.36;31.72
59240;BME280;45010;53.640;10.578;2023-04-15T00:31:38;100272.03;;;25.34;31.80
59240;BME280;45010;53.640;10.578;2023-04-15T00:34:38;100268.84;;;25.32;31.87
59240;BME280;45010;53.640;10.578;2023-04-15T00:37:39;100272.53;;;25.31;31.78
59240;BME280;45010;53.640;10.578;2023-04-15T00:40:39;100263.16;;;25.29;31.84
59240;BME280;45010;53.640;10.578;2023-04-15T00:43:40;100266.09;;;25.27;31.86
59240;BME280;45010;53.640;10.578;2023-04-15T00:46:41;100264.47;;;25.26;31.85
59240;BME280;45010;53.640;10.578;2023-04-15T00:49:42;100257.50;;;25.25;32.13
59240;BME280;45010;53.640;10.578;2023-04-15T00:52:42;100261.22;;;25.24;31.99
59240;BME280;45010;53.640;10.578;2023-04-15T00:55:43;100251.06;;;25.21;31.94
59240;BME280;45010;53.640;10.578;2023-04-15T00:58:43;100261.75;;;25.21;32.00
59240;BME280;45010;53.640;10.578;2023-04-15T01:01:43;100242.38;;;25.08;31.79
59240;BME280;45010;53.640;10.578;2023-04-15T01:04:44;100259.00;;;25.16;31.85
59240;BME280;45010;53.640;10.578;2023-04-15T01:07:46;100244.06;;;25.15;32.05
59240;BME280;45010;53.640;10.578;2023-04-15T01:10:47;100238.94;;;25.13;31.83
59240;BME280;45010;53.640;10.578;2023-04-15T01:13:47;100239.19;;;25.11;31.96
59240;BME280;45010;53.640;10.578;2023-04-15T01:16:48;100222.63;;;25.09;32.05
59240;BME280;45010;53.640;10.578;2023-04-15T01:19:48;100236.22;;;25.08;32.07
59240;BME280;45010;53.640;10.578;2023-04-15T01:22:49;100230.06;;;25.07;32.04
59240;BME280;45010;53.640;10.578;2023-04-15T01:25:51;100232.16;;;25.05;32.07
59240;BME280;45010;53.640;10.578;2023-04-15T01:28:52;100231.63;;;25.03;32.12
59240;BME280;45010;53.640;10.578;2023-04-15T01:31:54;100223.03;;;25.01;32.04
59240;BME280;45010;53.640;10.578;2023-04-15T01:34:54;100217.16;;;24.99;31.87
59240;BME280;45010;53.640;10.578;2023-04-15T01:38:01;100220.88;;;24.98;31.99
59240;BME280;45010;53.640;10.578;2023-04-15T01:41:03;100226.44;;;24.96;32.04
59240;BME280;45010;53.640;10.578;2023-04-15T01:44:03;100223.00;;;24.96;31.99
59240;BME280;45010;53.640;10.578;2023-04-15T01:47:04;100214.41;;;24.94;32.07
59240;BME280;45010;53.640;10.578;2023-04-15T01:50:05;100214.41;;;24.94;32.16
59240;BME280;45010;53.640;10.578;2023-04-15T01:53:05;100209.59;;;24.91;32.26
59240;BME280;45010;53.640;10.578;2023-04-15T01:56:06;100212.25;;;24.91;32.19
59240;BME280;45010;53.640;10.578;2023-04-15T01:59:07;100202.59;;;24.90;32.20
59240;BME280;45010;53.640;10.578;2023-04-15T02:02:07;100199.38;;;24.88;32.26
59240;BME280;45010;53.640;10.578;2023-04-15T02:05:08;100196.97;;;24.86;32.27
59240;BME280;45010;53.640;10.578;2023-04-15T02:08:08;100184.69;;;24.85;32.18
59240;BME280;45010;53.640;10.578;2023-04-15T02:11:09;100192.91;;;24.83;32.17
59240;BME280;45010;53.640;10.578;2023-04-15T02:14:09;100196.66;;;24.82;32.51
59240;BME280;45010;53.640;10.578;2023-04-15T02:17:09;100189.69;;;24.81;32.30
59240;BME280;45010;53.640;10.578;2023-04-15T02:20:10;100195.03;;;24.81;32.28
59240;BME280;45010;53.640;10.578;2023-04-15T02:23:11;100189.03;;;24.74;32.18
59240;BME280;45010;53.640;10.578;2023-04-15T02:26:11;100201.88;;;24.77;32.38
59240;BME280;45010;53.640;10.578;2023-04-15T02:29:12;100197.59;;;24.76;32.30
59240;BME280;45010;53.640;10.578;2023-04-15T02:32:12;100188.97;;;24.69;32.29
59240;BME280;45010;53.640;10.578;2023-04-15T02:35:13;100205.03;;;24.74;32.29
59240;BME280;45010;53.640;10.578;2023-04-15T02:38:13;100208.78;;;24.73;32.34
59240;BME280;45010;53.640;10.578;2023-04-15T02:41:15;100207.16;;;24.72;32.40
59240;BME280;45010;53.640;10.578;2023-04-15T02:44:16;100184.72;;;24.51;32.45
59240;BME280;45010;53.640;10.578;2023-04-15T02:47:19;100210.06;;;24.70;32.35
59240;BME280;45010;53.640;10.578;2023-04-15T02:50:20;100207.63;;;24.69;32.56
59240;BME280;45010;53.640;10.578;2023-04-15T02:53:20;100203.59;;;24.66;32.16
59240;BME280;45010;53.640;10.578;2023-04-15T02:56:21;100195.28;;;24.63;32.40
59240;BME280;45010;53.640;10.578;2023-04-15T02:59:22;100197.94;;;24.63;32.45
59240;BME280;45010;53.640;10.578;2023-04-15T03:02:23;100189.88;;;24.57;32.52
59240;BME280;45010;53.640;10.578;2023-04-15T03:05:23;100174.84;;;24.51;32.28
59240;BME280;45010;53.640;10.578;2023-04-15T03:08:24;100188.34;;;24.62;32.37
59240;BME280;45010;53.640;10.578;2023-04-15T03:11:25;100182.47;;;24.60;32.61
59240;BME280;45010;53.640;10.578;2023-04-15T03:14:28;100167.91;;;24.50;32.30
59240;BME280;45010;53.640;10.578;2023-04-15T03:17:29;100188.25;;;24.56;32.47
59240;BME280;45010;53.640;10.578;2023-04-15T03:20:29;100198.94;;;24.56;32.39
59240;BME280;45010;53.640;10.578;2023-04-15T03:23:30;100201.81;;;24.55;32.27
59240;BME280;45010;53.640;10.578;2023-04-15T03:26:30;100191.34;;;24.48;32.30
59240;BME280;45010;53.640;10.578;2023-04-15T03:29:31;100202.06;;;24.53;32.48
59240;BME280;45010;53.640;10.578;2023-04-15T03:32:31;100201.28;;;24.53;32.44
59240;BME280;45010;53.640;10.578;2023-04-15T03:35:32;100201.50;;;24.51;32.68
59240;BME280;45010;53.640;10.578;2023-04-15T03:38:32;100206.06;;;24.51;32.20
59240;BME280;45010;53.640;10.578;2023-04-15T03:41:32;100194.72;;;24.43;32.83
59240;BME280;45010;53.640;10.578;2023-04-15T03:44:33;100204.41;;;24.50;32.49
59240;BME280;45010;53.640;10.578;2023-04-15T03:47:33;100199.34;;;24.48;32.35
59240;BME280;45010;53.640;10.578;2023-04-15T03:50:33;100195.03;;;24.47;32.33
59240;BME280;45010;53.640;10.578;2023-04-15T03:53:33;100202.00;;;24.48;32.50
59240;BME280;45010;53.640;10.578;2023-04-15T03:56:34;100195.31;;;24.45;32.50
59240;BME280;45010;53.640;10.578;2023-04-15T03:59:34;100198.75;;;24.46;32.47
59240;BME280;45010;53.640;10.578;2023-04-15T04:02:35;100198.75;;;24.46;32.66
59240;BME280;45010;53.640;10.578;2023-04-15T04:05:35;100196.09;;;24.46;32.65
59240;BME280;45010;53.640;10.578;2023-04-15T04:08:38;100200.88;;;24.44;32.68
59240;BME280;45010;53.640;10.578;2023-04-15T04:11:38;100192.31;;;24.42;32.76
59240;BME280;45010;53.640;10.578;2023-04-15T04:14:38;100197.38;;;24.43;32.56
59240;BME280;45010;53.640;10.578;2023-04-15T04:17:39;100184.25;;;24.37;32.78
59240;BME280;45010;53.640;10.578;2023-04-15T04:20:40;100196.84;;;24.41;32.67
59240;BME280;45010;53.640;10.578;2023-04-15T04:23:40;100196.00;;;24.41;32.69
59240;BME280;45010;53.640;10.578;2023-04-15T04:26:41;100197.66;;;24.42;32.74
59240;BME280;45010;53.640;10.578;2023-04-15T04:29:41;100192.47;;;24.35;32.73
59240;BME280;45010;53.640;10.578;2023-04-15T04:32:42;100205.06;;;24.40;32.70
59240;BME280;45010;53.640;10.578;2023-04-15T04:35:42;100198.94;;;24.39;32.51
59240;BME280;45010;53.640;10.578;2023-04-15T04:38:42;100199.72;;;24.40;32.66
59240;BME280;45010;53.640;10.578;2023-04-15T04:41:43;100193.75;;;24.33;32.66
59240;BME280;45010;53.640;10.578;2023-04-15T04:44:43;100207.72;;;24.40;32.78
59240;BME280;45010;53.640;10.578;2023-04-15T04:47:44;100182.94;;;24.22;32.84
59240;BME280;45010;53.640;10.578;2023-04-15T04:50:45;100208.78;;;24.39;32.25
59240;BME280;45010;53.640;10.578;2023-04-15T04:53:46;100217.00;;;24.37;32.59
59240;BME280;45010;53.640;10.578;2023-04-15T04:56:46;100214.63;;;24.36;32.57
59240;BME280;45010;53.640;10.578;2023-04-15T04:59:46;100208.69;;;24.34;32.78
59240;BME280;45010;53.640;10.578;2023-04-15T05:02:47;100211.13;;;24.35;32.79
59240;BME280;45010;53.640;10.578;2023-04-15T05:05:47;100200.72;;;24.34;32.76
59240;BME280;45010;53.640;10.578;2023-04-15T05:08:48;100214.03;;;24.34;32.71
59240;BME280;45010;53.640;10.578;2023-04-15T05:11:48;100208.16;;;24.31;32.67
59240;BME280;45010;53.640;10.578;2023-04-15T05:14:49;100216.94;;;24.32;32.59
59240;BME280;45010;53.640;10.578;2023-04-15T05:17:49;100218.81;;;24.31;33.25
59240;BME280;45010;53.640;10.578;2023-04-15T05:20:49;100218.47;;;24.28;33.00
59240;BME280;45010;53.640;10.578;2023-04-15T05:23:50;100216.06;;;24.26;33.04
59240;BME280;45010;53.640;10.578;2023-04-15T05:26:50;100217.66;;;24.27;33.06
59240;BME280;45010;53.640;10.578;2023-04-15T05:29:50;100216.06;;;24.26;33.45
59240;BME280;45010;53.640;10.578;2023-04-15T05:32:51;100217.66;;;24.27;32.97
59240;BME280;45010;53.640;10.578;2023-04-15T05:35:51;100219.28;;;24.28;32.97
59240;BME280;45010;53.640;10.578;2023-04-15T05:38:52;100224.88;;;24.27;33.08
59240;BME280;45010;53.640;10.578;2023-04-15T05:41:52;100223.50;;;24.24;32.97
59240;BME280;45010;53.640;10.578;2023-04-15T05:44:52;100225.09;;;24.25;33.04
59240;BME280;45010;53.640;10.578;2023-04-15T05:47:53;100226.72;;;24.26;33.29
59240;BME280;45010;53.640;10.578;2023-04-15T05:50:53;100226.72;;;24.26;33.31
59240;BME280;45010;53.640;10.578;2023-04-15T05:53:53;100228.13;;;24.17;33.60
59240;BME280;45010;53.640;10.578;2023-04-15T05:56:54;100235.75;;;24.25;33.84
59240;BME280;45010;53.640;10.578;2023-04-15T05:59:56;100239.22;;;24.26;34.01
59240;BME280;45010;53.640;10.578;2023-04-15T06:02:57;100244.31;;;24.27;33.93
59240;BME280;45010;53.640;10.578;2023-04-15T06:05:58;100248.03;;;24.26;33.67
59240;BME280;45010;53.640;10.578;2023-04-15T06:08:58;100246.41;;;24.25;34.24
59240;BME280;45010;53.640;10.578;2023-04-15T06:11:58;100240.84;;;24.27;33.72
59240;BME280;45010;53.640;10.578;2023-04-15T06:14:59;100251.25;;;24.28;33.79
59240;BME280;45010;53.640;10.578;2023-04-15T06:17:59;100256.13;;;24.31;34.19
59240;BME280;45010;53.640;10.578;2023-04-15T06:20:59;100255.06;;;24.33;34.15
59240;BME280;45010;53.640;10.578;2023-04-15T06:24:00;100261.53;;;24.37;34.27
59240;BME280;45010;53.640;10.578;2023-04-15T06:27:00;100265.56;;;24.39;34.14
59240;BME280;45010;53.640;10.578;2023-04-15T06:30:01;100259.09;;;24.35;34.27
59240;BME280;45010;53.640;10.578;2023-04-15T06:33:02;100265.66;;;24.44;34.24
59240;BME280;45010;53.640;10.578;2023-04-15T06:36:04;100260.81;;;24.41;33.94
59240;BME280;45010;53.640;10.578;2023-04-15T06:39:05;100271.06;;;24.50;34.09
59240;BME280;45010;53.640;10.578;2023-04-15T06:42:05;100271.63;;;24.52;34.14
59240;BME280;45010;53.640;10.578;2023-04-15T06:45:06;100261.28;;;24.55;34.34
59240;BME280;45010;53.640;10.578;2023-04-15T06:48:07;100268.25;;;24.56;34.21
59240;BME280;45010;53.640;10.578;2023-04-15T06:51:08;100271.47;;;24.58;34.25
59240;BME280;45010;53.640;10.578;2023-04-15T06:54:08;100274.72;;;24.61;34.15
59240;BME280;45010;53.640;10.578;2023-04-15T06:57:08;100274.22;;;24.64;33.91
59240;BME280;45010;53.640;10.578;2023-04-15T07:00:09;100258.03;;;24.53;34.21
59240;BME280;45010;53.640;10.578;2023-04-15T07:03:11;100274.72;;;24.61;34.16
59240;BME280;45010;53.640;10.578;2023-04-15T07:06:12;100279.16;;;24.72;34.11
59240;BME280;45010;53.640;10.578;2023-04-15T07:09:12;100289.56;;;24.74;33.98
59240;BME280;45010;53.640;10.578;2023-04-15T07:12:12;100292.00;;;24.75;33.97
59240;BME280;45010;53.640;10.578;2023-04-15T07:15:13;100293.59;;;24.76;33.94
59240;BME280;45010;53.640;10.578;2023-04-15T07:18:13;100289.88;;;24.77;33.83
59240;BME280;45010;53.640;10.578;2023-04-15T07:21:13;100288.78;;;24.73;33.98
59240;BME280;45010;53.640;10.578;2023-04-15T07:24:14;100291.53;;;24.78;33.89
59240;BME280;45010;53.640;10.578;2023-04-15T07:27:17;100297.22;;;24.82;33.76
59240;BME280;45010;53.640;10.578;2023-04-15T07:30:17;100292.66;;;24.82;33.93
59240;BME280;45010;53.640;10.578;2023-04-15T07:33:17;100295.09;;;24.84;33.93
59240;BME280;45010;53.640;10.578;2023-04-15T07:36:18;100302.84;;;24.85;34.08
59240;BME280;45010;53.640;10.578;2023-04-15T07:39:18;100310.84;;;24.85;33.98
59240;BME280;45010;53.640;10.578;2023-04-15T07:42:19;100315.38;;;24.85;33.99
59240;BME280;45010;53.640;10.578;2023-04-15T07:45:19;100312.47;;;24.87;33.98
59240;BME280;45010;53.640;10.578;2023-04-15T07:48:20;100315.69;;;24.89;33.89
59240;BME280;45010;53.640;10.578;2023-04-15T07:51:20;100316.75;;;24.88;33.77
59240;BME280;45010;53.640;10.578;2023-04-15T07:54:21;100321.28;;;24.87;33.81
59240;BME280;45010;53.640;10.578;2023-04-15T07:57:21;100323.69;;;24.89;33.76
59240;BME280;45010;53.640;10.578;2023-04-15T08:00:22;100324.50;;;24.89;33.83
59240;BME280;45010;53.640;10.578;2023-04-15T08:03:22;100327.19;;;24.89;33.65
59240;BME280;45010;53.640;10.578;2023-04-15T08:06:23;100329.84;;;24.89;33.62
59240;BME280;45010;53.640;10.578;2023-04-15T08:09:23;100330.63;;;24.90;33.61
59240;BME280;45010;53.640;10.578;2023-04-15T08:12:23;100330.63;;;24.90;33.69
59240;BME280;45010;53.640;10.578;2023-04-15T08:15:24;100336.56;;;24.92;33.83
59240;BME280;45010;53.640;10.578;2023-04-15T08:18:24;100343.75;;;24.91;33.90
59240;BME280;45010;53.640;10.578;2023-04-15T08:21:25;100344.56;;;24.92;33.89
59240;BME280;45010;53.640;10.578;2023-04-15T08:24:26;100362.19;;;24.93;33.74
59240;BME280;45010;53.640;10.578;2023-04-15T08:27:27;100350.69;;;24.92;33.87
59240;BME280;45010;53.640;10.578;2023-04-15T08:30:27;100322.69;;;24.78;33.91
59240;BME280;45010;53.640;10.578;2023-04-15T08:33:28;100340.66;;;24.82;33.95
59240;BME280;45010;53.640;10.578;2023-04-15T08:36:28;100356.84;;;24.93;33.72
59240;BME280;45010;53.640;10.578;2023-04-15T08:39:28;100362.19;;;24.93;33.74
59240;BME280;45010;53.640;10.578;2023-04-15T08:42:31;100363.78;;;24.94;33.81
59240;BME280;45010;53.640;10.578;2023-04-15T08:45:34;100361.13;;;24.94;33.69
59240;BME280;45010;53.640;10.578;2023-04-15T08:48:37;100358.47;;;24.94;33.74
59240;BME280;45010;53.640;10.578;2023-04-15T08:51:39;100363.78;;;24.94;33.76
59240;BME280;45010;53.640;10.578;2023-04-15T08:54:39;100336.94;;;24.83;33.78
59240;BME280;45010;53.640;10.578;2023-04-15T08:57:41;100356.59;;;24.94;33.61
59240;BME280;45010;53.640;10.578;2023-04-15T09:00:41;100343.50;;;24.93;33.63
59240;BME280;45010;53.640;10.578;2023-04-15T09:03:42;100345.69;;;24.96;33.62
59240;BME280;45010;53.640;10.578;2023-04-15T09:06:43;100320.59;;;24.80;33.71
59240;BME280;45010;53.640;10.578;2023-04-15T09:09:44;100344.88;;;24.95;33.73
59240;BME280;45010;53.640;10.578;2023-04-15T09:12:45;100345.69;;;24.96;34.05
59240;BME280;45010;53.640;10.578;2023-04-15T09:15:45;100344.78;;;24.90;33.54
59240;BME280;45010;53.640;10.578;2023-04-15T09:18:46;100353.72;;;24.96;33.61
59240;BME280;45010;53.640;10.578;2023-04-15T09:21:46;100351.81;;;24.96;33.65
59240;BME280;45010;53.640;10.578;2023-04-15T09:24:47;100367.84;;;24.96;33.56
59240;BME280;45010;53.640;10.578;2023-04-15T09:27:48;100368.66;;;24.97;33.54
59240;BME280;45010;53.640;10.578;2023-04-15T09:30:51;100370.41;;;24.91;33.56
59240;BME280;45010;53.640;10.578;2023-04-15T09:33:54;100379.31;;;24.97;33.56
59240;BME280;45010;53.640;10.578;2023-04-15T09:36:57;100390.00;;;24.97;33.47
59240;BME280;45010;53.640;10.578;2023-04-15T09:39:58;100384.66;;;24.97;33.38
59240;BME280;45010;53.640;10.578;2023-04-15T09:42:58;100370.09;;;24.88;33.47
59240;BME280;45010;53.640;10.578;2023-04-15T09:45:59;100392.66;;;24.97;33.48
59240;BME280;45010;53.640;10.578;2023-04-15T09:49:09;100394.28;;;24.98;33.42
59240;BME280;45010;53.640;10.578;2023-04-15T09:52:12;100389.91;;;24.92;33.38
59240;BME280;45010;53.640;10.578;2023-04-15T09:55:14;100402.28;;;24.98;33.38
59240;BME280;45010;53.640;10.578;2023-04-15T09:58:23;100395.81;;;24.94;33.44
59240;BME280;45010;53.640;10.578;2023-04-15T10:01:24;100403.91;;;24.99;33.32
59240;BME280;45010;53.640;10.578;2023-04-15T10:04:26;100398.56;;;24.99;33.48
59240;BME280;45010;53.640;10.578;2023-04-15T10:07:27;100403.81;;;24.94;33.53
59240;BME280;45010;53.640;10.578;2023-04-15T10:10:28;100411.91;;;24.99;33.38
59240;BME280;45010;53.640;10.578;2023-04-15T10:13:31;100411.91;;;24.99;33.35
59240;BME280;45010;53.640;10.578;2023-04-15T10:16:38;100414.56;;;24.99;33.37
59240;BME280;45010;53.640;10.578;2023-04-15T10:19:41;100419.91;;;24.99;33.34
59240;BME280;45010;53.640;10.578;2023-04-15T10:22:43;100422.56;;;24.99;33.28
59240;BME280;45010;53.640;10.578;2023-04-15T10:25:45;100402.59;;;24.84;33.37
59240;BME280;45010;53.640;10.578;2023-04-15T10:28:45;100427.91;;;24.99;33.47
59240;BME280;45010;53.640;10.578;2023-04-15T10:31:47;100422.56;;;24.99;33.45
59240;BME280;45010;53.640;10.578;2023-04-15T10:34:48;100419.91;;;24.99;33.42
59240;BME280;45010;53.640;10.578;2023-04-15T10:37:50;100421.50;;;25.00;33.33
59240;BME280;45010;53.640;10.578;2023-04-15T10:40:50;100424.19;;;25.00;33.43
59240;BME280;45010;53.640;10.578;2023-04-15T10:43:59;100426.84;;;25.00;33.36
59240;BME280;45010;53.640;10.578;2023-04-15T10:47:00;100421.50;;;25.00;33.30
59240;BME280;45010;53.640;10.578;2023-04-15T10:50:00;100430.56;;;24.99;33.40
59240;BME280;45010;53.640;10.578;2023-04-15T10:53:02;100414.25;;;24.95;33.40
59240;BME280;45010;53.640;10.578;2023-04-15T10:56:04;100437.53;;;25.00;33.29
59240;BME280;45010;53.640;10.578;2023-04-15T10:59:04;100433.78;;;25.01;33.31
59240;BME280;45010;53.640;10.578;2023-04-15T11:02:06;100426.84;;;25.00;33.23
59240;BME280;45010;53.640;10.578;2023-04-15T11:05:06;100430.34;;;25.01;33.36
59240;BME280;45010;53.640;10.578;2023-04-15T11:08:08;100439.97;;;25.02;33.22
59240;BME280;45010;53.640;10.578;2023-04-15T11:11:09;100451.44;;;25.02;33.31
59240;BME280;45010;53.640;10.578;2023-04-15T11:14:14;100439.13;;;25.01;33.33
59240;BME280;45010;53.640;10.578;2023-04-15T11:17:26;100444.25;;;25.03;33.42
59240;BME280;45010;53.640;10.578;2023-04-15T11:20:28;100448.78;;;25.02;33.38
59240;BME280;45010;53.640;10.578;2023-04-15T11:23:32;100446.91;;;25.03;33.21
59240;BME280;45010;53.640;10.578;2023-04-15T11:26:33;100442.38;;;25.03;33.39
59240;BME280;45010;53.640;10.578;2023-04-15T11:29:33;100433.97;;;24.94;33.19
59240;BME280;45010;53.640;10.578;2023-04-15T11:32:34;100452.00;;;25.04;33.58
59240;BME280;45010;53.640;10.578;2023-04-15T11:35:35;100454.69;;;25.04;33.30
59240;BME280;45010;53.640;10.578;2023-04-15T11:38:35;100455.47;;;25.05;33.10
59240;BME280;45010;53.640;10.578;2023-04-15T11:41:37;100456.78;;;25.02;33.30
59240;BME280;45010;53.640;10.578;2023-04-15T11:44:37;100471.47;;;25.05;33.11
59240;BME280;45010;53.640;10.578;2023-04-15T11:47:38;100464.28;;;25.05;33.27
59240;BME280;45010;53.640;10.578;2023-04-15T11:50:39;100456.19;;;25.00;33.33
59240;BME280;45010;53.640;10.578;2023-04-15T11:56:49;100451.81;;;24.94;33.40
59240;BME280;45010;53.640;10.578;2023-04-15T11:59:53;100468.56;;;25.06;33.23
59240;BME280;45010;53.640;10.578;2023-04-15T12:03:13;100470.19;;;25.07;33.26
59240;BME280;45010;53.640;10.578;2023-04-15T12:06:16;100464.19;;;25.00;33.26
59240;BME280;45010;53.640;10.578;2023-04-15T12:09:18;100475.53;;;25.07;32.86
59240;BME280;45010;53.640;10.578;2023-04-15T12:12:19;100482.50;;;25.08;33.20
59240;BME280;45010;53.640;10.578;2023-04-15T12:15:23;100485.16;;;25.08;33.30
59240;BME280;45010;53.640;10.578;2023-04-15T12:18:23;100490.50;;;25.08;33.15
59240;BME280;45010;53.640;10.578;2023-04-15T12:21:27;100489.47;;;25.09;33.20
59240;BME280;45010;53.640;10.578;2023-04-15T12:24:31;100489.47;;;25.09;33.27
59240;BME280;45010;53.640;10.578;2023-04-15T12:27:31;100487.47;;;25.05;33.15
59240;BME280;45010;53.640;10.578;2023-04-15T12:30:31;100501.75;;;25.10;33.19
59240;BME280;45010;53.640;10.578;2023-04-15T12:33:32;100486.69;;;25.04;33.04
59240;BME280;45010;53.640;10.578;2023-04-15T12:36:33;100488.31;;;25.05;33.18
59240;BME280;45010;53.640;10.578;2023-04-15T12:39:43;100493.63;;;25.05;33.16
59240;BME280;45010;53.640;10.578;2023-04-15T12:42:45;100501.75;;;25.10;33.16
59240;BME280;45010;53.640;10.578;2023-04-15T12:45:45;100503.84;;;25.08;33.14
59240;BME280;45010;53.640;10.578;2023-04-15T12:48:46;100506.25;;;25.10;33.28
59240;BME280;45010;53.640;10.578;2023-04-15T12:51:53;100505.94;;;25.06;33.25
59240;BME280;45010;53.640;10.578;2023-04-15T12:54:54;100517.75;;;25.10;33.29
59240;BME280;45010;53.640;10.578;2023-04-15T12:57:54;100517.75;;;25.10;33.26
59240;BME280;45010;53.640;10.578;2023-04-15T13:00:55;100522.03;;;25.11;33.36
59240;BME280;45010;53.640;10.578;2023-04-15T13:03:56;100519.38;;;25.11;33.29
59240;BME280;45010;53.640;10.578;2023-04-15T13:06:56;100519.88;;;25.08;33.43
59240;BME280;45010;53.640;10.578;2023-04-15T13:09:57;100530.84;;;25.12;33.35
59240;BME280;45010;53.640;10.578;2023-04-15T13:12:57;100537.81;;;25.13;33.31
59240;BME280;45010;53.640;10.578;2023-04-15T13:15:58;100529.72;;;25.08;33.33
59240;BME280;45010;53.640;10.578;2023-04-15T13:18:59;100541.88;;;25.16;33.81
59240;BME280;45010;53.640;10.578;2023-04-15T13:21:59;100539.75;;;25.18;33.78
59240;BME280;45010;53.640;10.578;2023-04-15T13:24:59;100539.75;;;25.18;33.74
59240;BME280;45010;53.640;10.578;2023-04-15T13:28:00;100539.53;;;25.19;33.87
59240;BME280;45010;53.640;10.578;2023-04-15T13:31:00;100546.25;;;25.22;33.77
59240;BME280;45010;53.640;10.578;2023-04-15T13:34:00;100531.66;;;25.12;33.65
59240;BME280;45010;53.640;10.578;2023-04-15T13:37:08;100551.09;;;25.25;33.68
59240;BME280;45010;53.640;10.578;2023-04-15T13:40:08;100563.41;;;25.26;33.54
59240;BME280;45010;53.640;10.578;2023-04-15T13:43:09;100555.97;;;25.28;33.54
59240;BME280;45010;53.640;10.578;2023-04-15T13:46:10;100558.63;;;25.28;33.55
59240;BME280;45010;53.640;10.578;2023-04-15T13:49:10;100564.53;;;25.30;33.59
59240;BME280;45010;53.640;10.578;2023-04-15T13:52:11;100562.59;;;25.25;33.48
59240;BME280;45010;53.640;10.578;2023-04-15T13:55:12;100573.34;;;25.31;33.26
59240;BME280;45010;53.640;10.578;2023-04-15T13:58:12;100579.50;;;25.31;33.50
59240;BME280;45010;53.640;10.578;2023-04-15T14:01:12;100578.47;;;25.32;33.56
59240;BME280;45010;53.640;10.578;2023-04-15T14:04:13;100580.06;;;25.33;33.49
59240;BME280;45010;53.640;10.578;2023-04-15T14:07:13;100557.38;;;25.19;33.52
59240;BME280;45010;53.640;10.578;2023-04-15T14:10:13;100576.34;;;25.34;33.67
59240;BME280;45010;53.640;10.578;2023-04-15T14:13:14;100561.66;;;25.20;33.30
59240;BME280;45010;53.640;10.578;2023-04-15T14:16:14;100577.88;;;25.30;33.44
59240;BME280;45010;53.640;10.578;2023-04-15T14:19:14;100595.59;;;25.36;33.52
59240;BME280;45010;53.640;10.578;2023-04-15T14:22:15;100600.16;;;25.36;33.44
59240;BME280;45010;53.640;10.578;2023-04-15T14:25:16;100592.94;;;25.36;33.61
59240;BME280;45010;53.640;10.578;2023-04-15T14:28:16;100600.72;;;25.38;33.44
59240;BME280;45010;53.640;10.578;2023-04-15T14:31:17;100599.81;;;25.32;33.36
59240;BME280;45010;53.640;10.578;2023-04-15T14:34:18;100605.16;;;25.32;33.49
59240;BME280;45010;53.640;10.578;2023-04-15T14:37:21;100619.16;;;25.39;33.47
59240;BME280;45010;53.640;10.578;2023-04-15T14:40:21;100613.72;;;25.34;33.42
59240;BME280;45010;53.640;10.578;2023-04-15T14:43:22;100620.78;;;25.41;33.43
59240;BME280;45010;53.640;10.578;2023-04-15T14:46:22;100630.06;;;25.38;33.13
59240;BME280;45010;53.640;10.578;2023-04-15T14:49:22;100633.63;;;25.44;33.29
59240;BME280;45010;53.640;10.578;2023-04-15T14:52:23;100643.28;;;25.45;33.35
59240;BME280;45010;53.640;10.578;2023-04-15T14:55:23;100648.03;;;25.43;33.21
59240;BME280;45010;53.640;10.578;2023-04-15T14:58:24;100649.66;;;25.44;33.19
59240;BME280;45010;53.640;10.578;2023-04-15T15:01:24;100652.81;;;25.41;33.15
59240;BME280;45010;53.640;10.578;2023-04-15T15:04:24;100656.28;;;25.41;33.05
59240;BME280;45010;53.640;10.578;2023-04-15T15:07:25;100663.50;;;25.41;33.10
59240;BME280;45010;53.640;10.578;2023-04-15T15:10:26;100664.53;;;25.39;33.24
59240;BME280;45010;53.640;10.578;2023-04-15T15:13:27;100640.81;;;25.26;33.43
59240;BME280;45010;53.640;10.578;2023-04-15T15:16:28;100672.66;;;25.45;33.44
59240;BME280;45010;53.640;10.578;2023-04-15T15:19:28;100668.94;;;25.46;33.23
59240;BME280;45010;53.640;10.578;2023-04-15T15:22:28;100676.94;;;25.46;33.28
59240;BME280;45010;53.640;10.578;2023-04-15T15:25:29;100676.72;;;25.47;33.31
59240;BME280;45010;53.640;10.578;2023-04-15T15:28:29;100683.66;;;25.48;33.25
59240;BME280;45010;53.640;10.578;2023-04-15T15:31:29;100684.47;;;25.49;33.12
59240;BME280;45010;53.640;10.578;2023-04-15T15:34:30;100680.75;;;25.50;33.24
59240;BME280;45010;53.640;10.578;2023-04-15T15:37:30;100691.41;;;25.50;33.15